createdAt,value
2019-04-14T00:01:19.415Z,20.00
2019-04-14T00:03:48.611Z,21.25
2019-04-14T00:06:15.996Z,23.42
2019-04-14T00:08:43.768Z,22.37
2019-04-14T00:11:11.085Z,21.45
2019-04-14T00:13:39.280Z,18.30
2019-04-14T00:16:07.422Z,20.00
2019-04-14T00:18:35.662Z,22.30
2019-04-14T00:21:04.397Z,22.30
2019-04-14T00:23:32.626Z,21.75
2019-04-14T00:26:18.382Z,22.37
2019-04-14T00:28:46.893Z,21.93
2019-04-14T00:31:15.194Z,22.70
2019-04-14T00:33:43.242Z,20.60
2019-04-14T00:36:13.260Z,22.75
2019-04-14T00:38:43.221Z,21.87
2019-04-14T00:41:40.299Z,22.98
2019-04-14T00:43:59.412Z,21.42
2019-04-14T00:46:40.928Z,20.30
2019-04-14T00:49:09.209Z,22.10
2019-04-14T00:51:38.317Z,20.85
2019-04-14T00:54:06.633Z,21.23
2019-04-14T00:56:34.374Z,19.95
2019-04-14T00:59:02.722Z,22.32
2019-04-14T01:01:30.831Z,20.20
2019-04-14T01:03:59.128Z,23.15
2019-04-14T01:06:27.313Z,21.65
2019-04-14T01:08:55.412Z,21.50
2019-04-14T01:11:22.660Z,23.15
2019-04-14T01:13:50.845Z,20.08
2019-04-14T01:16:20.847Z,21.37
2019-04-14T01:18:47.322Z,22.67
2019-04-14T01:21:15.336Z,24.32
2019-04-14T01:23:43.470Z,20.88
2019-04-14T01:26:11.760Z,23.07
2019-04-14T01:28:39.687Z,22.98
2019-04-14T01:31:07.648Z,20.20
2019-04-14T01:33:35.860Z,21.87
2019-04-14T01:36:03.951Z,22.87
2019-04-14T01:38:31.946Z,22.37
2019-04-14T01:40:59.933Z,23.18
2019-04-14T01:43:27.803Z,21.37
2019-04-14T01:46:05.251Z,19.82
2019-04-14T01:48:23.986Z,21.60
2019-04-14T01:51:02.698Z,22.05
2019-04-14T01:53:35.677Z,21.00
2019-04-14T01:56:14.457Z,23.38
2019-04-14T01:58:44.669Z,20.02
2019-04-14T02:01:17.052Z,23.18
2019-04-14T02:03:45.482Z,20.90
2019-04-14T02:06:13.619Z,21.17
2019-04-14T02:08:41.507Z,22.15
2019-04-14T02:11:09.452Z,21.57
2019-04-14T02:13:37.567Z,22.22
2019-04-14T02:16:15.110Z,23.55
2019-04-14T02:18:34.104Z,22.52
2019-04-14T02:21:02.133Z,21.20
2019-04-14T02:23:30.205Z,22.75
2019-04-14T02:25:57.984Z,23.50
2019-04-14T02:28:26.376Z,23.27
2019-04-14T02:31:08.050Z,24.90
2019-04-14T02:34:07.509Z,24.82
2019-04-14T02:36:22.101Z,23.80
2019-04-14T02:41:21.495Z,20.17
2019-04-14T02:46:10.387Z,21.77
2019-04-14T02:51:15.975Z,22.45
2019-04-14T02:53:44.360Z,23.60
2019-04-14T03:06:10.303Z,23.40
2019-04-14T03:08:50.769Z,21.77
2019-04-14T03:11:01.213Z,22.07
2019-04-14T03:16:07.905Z,22.85
2019-04-14T03:18:45.945Z,22.17
2019-04-14T03:21:19.498Z,24.32
2019-04-14T03:23:48.588Z,21.00
2019-04-14T03:26:13.858Z,22.58
2019-04-14T03:28:51.623Z,23.92
2019-04-14T03:34:18.341Z,23.70
2019-04-14T03:36:58.224Z,25.80
2019-04-14T03:41:25.603Z,20.65
2019-04-14T03:43:41.042Z,23.30
2019-04-14T03:46:37.046Z,21.52
2019-04-14T03:51:21.443Z,25.65
2019-04-14T03:53:39.814Z,24.55
2019-04-14T03:55:55.521Z,23.18
2019-04-14T03:58:18.936Z,25.32
2019-04-14T04:00:46.549Z,23.87
2019-04-14T04:03:13.779Z,22.37
2019-04-14T04:05:41.352Z,25.20
2019-04-14T04:08:09.346Z,24.45
2019-04-14T04:10:44.448Z,22.32
2019-04-14T04:13:12.618Z,25.55
2019-04-14T04:15:41.111Z,22.45
2019-04-14T04:18:22.032Z,23.95
2019-04-14T04:20:54.499Z,24.43
2019-04-14T04:23:23.430Z,24.80
2019-04-14T04:25:58.060Z,24.20
2019-04-14T04:28:36.395Z,23.95
2019-04-14T04:31:08.884Z,25.05
2019-04-14T04:33:37.863Z,25.72
2019-04-14T04:36:07.398Z,24.82
2019-04-14T04:38:39.864Z,26.80
2019-04-14T04:41:08.031Z,22.73
2019-04-14T04:43:36.455Z,22.32
2019-04-14T04:46:04.827Z,23.42
2019-04-14T04:48:32.866Z,22.95
2019-04-14T04:51:00.689Z,24.00
2019-04-14T04:53:28.791Z,24.25
2019-04-14T04:55:56.795Z,23.77
2019-04-14T04:58:24.196Z,22.15
2019-04-14T05:00:53.925Z,23.95
2019-04-14T05:03:21.130Z,23.38
2019-04-14T05:06:06.822Z,24.55
2019-04-14T05:08:34.840Z,23.35
2019-04-14T05:11:09.691Z,22.98
2019-04-14T05:13:38.183Z,22.50
2019-04-14T05:16:06.328Z,20.72
2019-04-14T05:18:33.678Z,25.27
2019-04-14T05:21:01.751Z,26.93
2019-04-14T05:23:29.946Z,25.20
2019-04-14T05:25:58.143Z,23.22
2019-04-14T05:28:26.583Z,21.00
2019-04-14T05:30:54.707Z,22.40
2019-04-14T05:33:22.853Z,22.73
2019-04-14T05:35:50.959Z,22.50
2019-04-14T05:38:19.070Z,23.50
2019-04-14T05:40:47.461Z,21.57
2019-04-14T05:43:28.377Z,23.50
2019-04-14T05:45:43.781Z,26.05
2019-04-14T05:48:11.827Z,23.57
2019-04-14T05:50:40.070Z,20.40
2019-04-14T05:53:08.569Z,21.20
2019-04-14T05:55:37.265Z,19.30
2019-04-14T05:58:05.735Z,22.20
2019-04-14T06:00:34.218Z,23.27
2019-04-14T06:03:01.737Z,23.73
2019-04-14T06:05:29.659Z,20.72
2019-04-14T06:07:56.998Z,22.42
2019-04-14T06:10:24.300Z,22.40
2019-04-14T06:12:51.535Z,23.25
2019-04-14T06:15:18.826Z,22.42
2019-04-14T06:17:46.074Z,24.65
2019-04-14T06:20:13.377Z,23.55
2019-04-14T06:22:40.665Z,24.20
2019-04-14T06:25:08.288Z,22.98
2019-04-14T06:27:35.828Z,23.25
2019-04-14T06:30:05.966Z,22.10
2019-04-14T06:32:40.790Z,22.30
2019-04-14T06:35:26.222Z,20.62
2019-04-14T06:37:55.103Z,24.60
2019-04-14T06:40:24.010Z,25.68
2019-04-14T06:42:51.243Z,21.17
2019-04-14T06:45:18.467Z,20.10
2019-04-14T06:47:45.699Z,23.77
2019-04-14T06:50:14.526Z,19.50
2019-04-14T06:52:41.770Z,22.85
2019-04-14T06:55:09.298Z,23.10
2019-04-14T06:57:36.527Z,23.55
2019-04-14T07:00:04.091Z,22.00
2019-04-14T07:02:31.318Z,21.65
2019-04-14T07:04:58.540Z,21.57
2019-04-14T07:07:25.779Z,18.85
2019-04-14T07:09:53.004Z,24.37
2019-04-14T07:12:20.235Z,23.45
2019-04-14T07:14:47.466Z,22.93
2019-04-14T07:17:14.687Z,25.62
2019-04-14T07:19:41.915Z,25.52
2019-04-14T07:22:09.150Z,25.55
2019-04-14T07:24:48.193Z,22.35
2019-04-14T07:27:15.416Z,23.92
2019-04-14T07:29:44.278Z,23.47
2019-04-14T07:32:25.438Z,23.80
2019-04-14T07:34:57.240Z,25.65
2019-04-14T07:37:31.890Z,23.52
2019-04-14T07:40:00.762Z,22.37
2019-04-14T07:45:24.771Z,22.60
2019-04-14T07:47:57.382Z,23.05
2019-04-14T07:50:26.386Z,21.57
2019-04-14T07:53:11.579Z,22.90
2019-04-14T07:55:40.446Z,23.32
2019-04-14T07:58:24.430Z,24.60
2019-04-14T08:00:53.378Z,22.62
2019-04-14T08:03:28.111Z,25.48
2019-04-14T08:05:55.342Z,27.35
2019-04-14T08:08:22.657Z,24.63
2019-04-14T08:10:49.961Z,23.90
2019-04-14T08:13:17.188Z,23.05
2019-04-14T08:15:44.439Z,23.40
2019-04-14T08:18:11.675Z,21.50
2019-04-14T08:20:38.907Z,22.77
2019-04-14T08:23:06.139Z,24.07
2019-04-14T08:25:33.367Z,22.50
2019-04-14T08:28:00.599Z,22.25
2019-04-14T08:30:28.106Z,22.37
2019-04-14T08:32:55.688Z,23.92
2019-04-14T08:35:22.962Z,23.98
2019-04-14T08:37:50.189Z,22.80
2019-04-14T08:40:17.487Z,21.70
2019-04-14T08:43:04.180Z,23.92
2019-04-14T08:45:42.111Z,24.12
2019-04-14T08:48:27.288Z,24.45
2019-04-14T08:51:14.390Z,23.62
2019-04-14T08:53:43.270Z,23.52
2019-04-14T08:56:12.143Z,24.07
2019-04-14T08:58:57.551Z,22.85
2019-04-14T09:01:41.140Z,22.45
2019-04-14T09:04:18.719Z,22.67
2019-04-14T09:06:47.592Z,23.27
2019-04-14T09:09:35.071Z,27.30
2019-04-14T09:12:14.827Z,24.25
2019-04-14T09:14:32.976Z,25.10
2019-04-14T09:17:00.222Z,27.02
2019-04-14T09:19:27.479Z,22.27
2019-04-14T09:21:54.814Z,26.37
2019-04-14T09:24:22.105Z,26.35
2019-04-14T09:26:49.398Z,26.48
2019-04-14T09:29:16.811Z,23.38
2019-04-14T09:31:44.042Z,25.70
2019-04-14T09:34:11.266Z,22.75
2019-04-14T09:36:38.486Z,24.85
2019-04-14T09:39:06.500Z,23.85
2019-04-14T09:41:33.729Z,25.45
2019-04-14T09:44:01.022Z,24.23
2019-04-14T09:46:28.260Z,26.65
2019-04-14T09:48:55.528Z,24.65
2019-04-14T09:51:22.804Z,24.90
2019-04-14T09:53:50.116Z,22.98
2019-04-14T09:56:17.363Z,23.85
2019-04-14T09:58:44.664Z,26.50
2019-04-14T10:01:11.927Z,27.00
2019-04-14T10:03:39.214Z,23.65
2019-04-14T10:06:06.524Z,26.20
2019-04-14T10:08:33.743Z,23.38
2019-04-14T10:11:01.132Z,25.27
2019-04-14T10:13:28.358Z,24.95
2019-04-14T10:15:55.595Z,25.27
2019-04-14T10:18:22.823Z,24.02
2019-04-14T10:20:50.047Z,25.55
2019-04-14T10:23:17.273Z,24.43
2019-04-14T10:25:44.507Z,24.32
2019-04-14T10:28:11.755Z,22.80
2019-04-14T10:30:39.030Z,23.27
2019-04-14T10:33:06.259Z,26.85
2019-04-14T10:35:33.501Z,23.42
2019-04-14T10:38:00.726Z,24.75
2019-04-14T10:40:27.948Z,24.35
2019-04-14T10:42:55.179Z,26.57
2019-04-14T10:45:22.411Z,22.80
2019-04-14T10:47:49.635Z,24.30
2019-04-14T10:50:29.890Z,25.05
2019-04-14T10:52:45.871Z,25.12
2019-04-14T10:55:13.083Z,23.73
2019-04-14T10:57:40.587Z,22.35
2019-04-14T11:00:09.635Z,23.45
2019-04-14T11:02:36.862Z,23.57
2019-04-14T11:05:05.079Z,25.50
2019-04-14T11:07:32.342Z,22.55
2019-04-14T11:09:59.600Z,21.65
2019-04-14T11:12:27.556Z,22.15
2019-04-14T11:14:54.812Z,24.70
2019-04-14T11:17:22.199Z,23.07
2019-04-14T11:19:50.533Z,23.35
2019-04-14T11:22:18.097Z,23.73
2019-04-14T11:24:45.425Z,24.80
2019-04-14T11:27:13.134Z,25.00
2019-04-14T11:29:40.527Z,23.47
2019-04-14T11:32:18.481Z,25.43
2019-04-14T11:34:53.318Z,24.27
2019-04-14T11:37:22.604Z,23.38
2019-04-14T11:39:54.776Z,24.45
2019-04-14T11:42:19.972Z,24.75
2019-04-14T11:44:49.393Z,24.07
2019-04-14T11:47:16.852Z,24.37
2019-04-14T11:49:44.071Z,23.65
2019-04-14T11:52:14.056Z,25.60
2019-04-14T11:54:42.250Z,23.93
2019-04-14T11:57:09.904Z,27.93
2019-04-14T11:59:45.186Z,27.62
2019-04-14T12:02:22.907Z,25.17
2019-04-14T12:04:51.763Z,24.80
2019-04-14T12:07:20.672Z,25.25
2019-04-14T12:09:55.488Z,24.15
2019-04-14T12:12:22.739Z,22.75
2019-04-14T12:14:50.101Z,25.23
2019-04-14T12:17:17.687Z,23.30
2019-04-14T12:19:44.996Z,23.27
2019-04-14T12:22:12.246Z,23.18
2019-04-14T12:24:41.151Z,24.63
2019-04-14T12:27:08.440Z,25.95
2019-04-14T12:29:36.785Z,24.67
2019-04-14T12:32:04.575Z,23.45
2019-04-14T12:34:31.840Z,24.60
2019-04-14T12:36:59.063Z,23.75
2019-04-14T12:39:26.284Z,22.20
2019-04-14T12:41:57.863Z,26.57
2019-04-14T12:44:43.347Z,24.53
2019-04-14T12:47:28.663Z,21.05
2019-04-14T12:50:15.487Z,23.90
2019-04-14T12:52:42.731Z,23.55
2019-04-14T12:55:09.975Z,23.30
2019-04-14T12:57:48.244Z,25.50
2019-04-14T13:00:26.199Z,23.70
2019-04-14T13:02:54.103Z,24.37
2019-04-14T13:05:21.330Z,21.57
2019-04-14T13:07:48.579Z,21.63
2019-04-14T13:10:15.871Z,19.57
2019-04-14T13:12:43.111Z,19.50
2019-04-14T13:15:10.592Z,19.00
2019-04-14T13:17:37.831Z,17.70
2019-04-14T13:20:06.328Z,16.30
2019-04-14T13:22:34.422Z,16.20
2019-04-14T13:25:01.922Z,16.47
2019-04-14T13:27:29.148Z,18.00
2019-04-14T13:29:56.848Z,17.27
2019-04-14T13:32:35.332Z,16.63
2019-04-14T13:34:53.055Z,15.90
2019-04-14T13:37:20.414Z,14.20
2019-04-14T13:39:47.637Z,14.77
2019-04-14T13:42:14.885Z,14.70
2019-04-14T13:44:42.182Z,12.97
2019-04-14T13:47:09.493Z,16.13
2019-04-14T13:49:36.764Z,11.20
2019-04-14T13:52:04.165Z,13.60
2019-04-14T13:54:31.397Z,13.37
2019-04-14T13:56:58.687Z,13.33
2019-04-14T13:59:26.092Z,14.33
2019-04-14T14:01:53.318Z,13.80
2019-04-14T14:04:20.556Z,11.83
2019-04-14T14:06:47.782Z,12.70
2019-04-14T14:09:15.025Z,14.13
2019-04-14T14:11:49.723Z,13.10
2019-04-14T14:14:27.332Z,13.17
2019-04-14T14:17:05.033Z,14.17
2019-04-14T14:19:33.895Z,14.10
2019-04-14T14:22:08.767Z,14.10
2019-04-14T14:24:43.903Z,14.73
2019-04-14T14:27:11.197Z,14.87
2019-04-14T14:29:38.434Z,15.23
2019-04-14T14:32:07.291Z,13.27
2019-04-14T14:34:34.775Z,14.30
2019-04-14T14:37:02.004Z,13.30
2019-04-14T14:39:29.245Z,13.90
2019-04-14T14:41:56.475Z,13.53
2019-04-14T14:44:25.715Z,13.57
2019-04-14T14:46:57.569Z,13.27
2019-04-14T14:49:35.423Z,13.40
2019-04-14T14:52:09.927Z,12.27
2019-04-14T14:54:37.166Z,14.00
2019-04-14T14:57:04.459Z,12.43
2019-04-14T14:59:31.686Z,12.43
2019-04-14T15:01:58.915Z,13.00
2019-04-14T15:04:26.166Z,13.83
2019-04-14T15:06:53.393Z,13.80
2019-04-14T15:09:20.766Z,13.80
2019-04-14T15:11:47.982Z,14.10
2019-04-14T15:14:15.246Z,13.10
2019-04-14T15:16:42.563Z,13.53
2019-04-14T15:19:09.795Z,15.23
2019-04-14T15:21:37.010Z,12.10
2019-04-14T15:24:04.319Z,13.70
2019-04-14T15:26:31.559Z,13.43
2019-04-14T15:28:58.791Z,13.03
2019-04-14T15:31:26.059Z,12.43
2019-04-14T15:33:53.326Z,13.87
2019-04-14T15:36:20.564Z,13.83
2019-04-14T15:38:47.800Z,12.10
2019-04-14T15:41:15.020Z,13.90
2019-04-14T15:43:42.243Z,15.30
2019-04-14T15:46:09.466Z,15.83
2019-04-14T15:48:36.710Z,14.40
2019-04-14T15:51:03.935Z,14.10
2019-04-14T15:53:37.741Z,13.40
2019-04-14T15:56:00.118Z,13.00
2019-04-14T15:58:28.995Z,14.10
2019-04-14T16:01:16.016Z,14.83
2019-04-14T16:03:56.878Z,13.90
2019-04-14T16:06:40.674Z,13.93
2019-04-14T16:09:12.459Z,13.47
2019-04-14T16:11:59.167Z,13.90
2019-04-14T16:14:46.016Z,14.53
2019-04-14T16:17:20.610Z,16.40
2019-04-14T16:19:49.484Z,13.60
2019-04-14T16:22:16.700Z,14.43
2019-04-14T16:24:43.935Z,13.67
2019-04-14T16:27:12.809Z,12.88
2019-04-14T16:29:47.531Z,13.30
2019-04-14T16:32:28.298Z,13.05
2019-04-14T16:35:02.675Z,13.55
2019-04-14T16:37:30.148Z,13.05
2019-04-14T16:39:57.403Z,12.15
2019-04-14T16:42:24.672Z,14.80
2019-04-14T16:44:51.923Z,12.53
2019-04-14T16:47:32.321Z,12.75
2019-04-14T16:49:59.677Z,12.63
2019-04-14T16:52:28.621Z,12.35
2019-04-14T16:55:10.574Z,13.00
2019-04-14T16:57:40.705Z,12.10
2019-04-14T17:00:10.179Z,12.20
2019-04-14T17:02:37.417Z,12.82
2019-04-14T17:05:04.938Z,12.18
2019-04-14T17:07:32.227Z,12.35
2019-04-14T17:09:59.504Z,11.50
2019-04-14T17:12:26.787Z,12.68
2019-04-14T17:14:58.545Z,11.25
2019-04-14T17:17:39.755Z,11.18
2019-04-14T17:20:08.759Z,9.88
2019-04-14T17:22:43.777Z,10.85
2019-04-14T17:25:12.781Z,9.75
2019-04-14T17:27:41.674Z,11.60
2019-04-14T17:30:22.627Z,9.50
2019-04-14T17:33:07.833Z,11.68
2019-04-14T17:35:36.720Z,10.55
2019-04-14T17:38:05.605Z,11.63
2019-04-14T17:40:52.615Z,10.38
2019-04-14T17:43:27.239Z,11.28
2019-04-14T17:45:56.125Z,11.65
2019-04-14T17:48:33.895Z,11.28
2019-04-14T17:51:11.706Z,10.60
2019-04-14T17:53:40.570Z,11.30
2019-04-14T17:56:12.172Z,11.05
2019-04-14T17:58:50.303Z,10.32
2019-04-14T18:01:37.583Z,10.60
2019-04-14T18:04:12.611Z,9.98
2019-04-14T18:06:47.143Z,10.05
2019-04-14T18:09:34.064Z,10.50
2019-04-14T18:12:05.709Z,9.88
2019-04-14T18:14:34.638Z,10.88
2019-04-14T18:17:06.151Z,9.65
2019-04-14T18:19:43.726Z,9.45
2019-04-14T18:22:10.980Z,9.83
2019-04-14T18:24:42.617Z,10.15
2019-04-14T18:27:07.252Z,10.68
2019-04-14T18:29:38.893Z,10.38
2019-04-14T18:32:19.704Z,10.88
2019-04-14T18:35:03.848Z,10.13
2019-04-14T18:37:38.700Z,11.45
2019-04-14T18:40:08.343Z,9.93
2019-04-14T18:42:37.228Z,11.43
2019-04-14T18:45:07.555Z,11.10
2019-04-14T18:47:36.432Z,9.60
2019-04-14T18:50:05.574Z,9.48
2019-04-14T18:52:51.180Z,9.68
2019-04-14T18:55:35.011Z,10.20
2019-04-14T18:58:09.782Z,9.93
2019-04-14T19:00:41.860Z,11.22
2019-04-14T19:03:09.126Z,10.35
2019-04-14T19:05:36.335Z,16.15
2019-04-14T19:08:03.560Z,15.53
2019-04-14T19:10:30.799Z,12.47
2019-04-14T19:12:59.680Z,14.60
2019-04-14T19:15:28.541Z,11.50
2019-04-14T19:17:57.407Z,12.45
2019-04-14T19:20:24.661Z,11.65
2019-04-14T19:22:51.980Z,10.18
2019-04-14T19:25:19.218Z,12.40
2019-04-14T19:27:46.447Z,10.88
2019-04-14T19:30:14.045Z,11.83
2019-04-14T19:32:41.296Z,11.28
2019-04-14T19:35:08.601Z,11.12
2019-04-14T19:37:35.838Z,12.07
2019-04-14T19:40:04.941Z,11.55
2019-04-14T19:42:32.179Z,12.20
2019-04-14T19:44:59.415Z,13.98
2019-04-14T19:47:26.651Z,13.00
2019-04-14T19:49:53.887Z,11.20
2019-04-14T19:52:21.118Z,11.57
2019-04-14T19:54:48.359Z,11.30
2019-04-14T19:57:15.575Z,11.85
2019-04-14T19:59:42.842Z,11.35
2019-04-14T20:02:10.093Z,12.28
2019-04-14T20:04:37.368Z,12.00
2019-04-14T20:07:04.597Z,12.18
2019-04-14T20:09:31.841Z,12.73
2019-04-14T20:11:59.108Z,12.98
2019-04-14T20:14:26.339Z,12.53
2019-04-14T20:17:12.003Z,12.65
2019-04-14T20:19:57.219Z,13.32
2019-04-14T20:22:28.889Z,13.93
2019-04-14T20:25:00.466Z,12.40
2019-04-14T20:27:47.689Z,11.78
2019-04-14T20:30:16.569Z,12.45
2019-04-14T20:32:45.288Z,10.00
2019-04-14T20:35:12.878Z,11.45
2019-04-14T20:37:40.183Z,11.53
2019-04-14T20:40:07.789Z,9.70
2019-04-14T20:42:35.063Z,11.30
2019-04-14T20:45:02.657Z,11.38
2019-04-14T20:47:29.877Z,11.53
2019-04-14T20:49:57.116Z,13.00
2019-04-14T20:52:24.344Z,13.05
2019-04-14T20:54:52.437Z,14.43
2019-04-14T20:57:19.655Z,14.10
2019-04-14T20:59:46.903Z,14.07
2019-04-14T21:02:22.165Z,12.10
2019-04-14T21:04:51.138Z,12.90
2019-04-14T21:07:22.769Z,12.65
2019-04-14T21:09:54.604Z,11.10
2019-04-14T21:12:35.530Z,12.35
2019-04-14T21:15:10.489Z,17.82
2019-04-14T21:17:51.475Z,19.75
2019-04-14T21:20:20.435Z,21.65
2019-04-14T21:22:49.351Z,20.65
2019-04-14T21:25:33.286Z,23.10
2019-04-14T21:28:07.964Z,23.47
2019-04-14T21:30:55.295Z,19.32
2019-04-14T21:33:40.367Z,16.95
2019-04-14T21:36:14.937Z,14.40
2019-04-14T21:38:43.827Z,13.72
2019-04-14T21:41:18.460Z,14.20
2019-04-14T21:43:45.685Z,12.85
2019-04-14T21:46:12.906Z,14.73
2019-04-14T21:48:40.144Z,18.40
2019-04-14T21:51:07.448Z,14.78
2019-04-14T21:53:34.705Z,20.15
2019-04-14T21:56:12.835Z,22.42
2019-04-14T21:58:38.538Z,14.55
2019-04-14T22:01:39.300Z,15.85
2019-04-14T22:04:14.222Z,15.50
2019-04-14T22:06:49.231Z,14.75
2019-04-14T22:09:18.152Z,14.70
2019-04-14T22:11:45.402Z,11.88
2019-04-14T22:14:12.652Z,11.00
2019-04-14T22:16:39.887Z,8.28
2019-04-14T22:19:07.641Z,10.30
2019-04-14T22:21:34.942Z,9.58
2019-04-14T22:24:02.447Z,10.82
2019-04-14T22:26:29.860Z,12.75
2019-04-14T22:28:57.167Z,10.50
2019-04-14T22:31:24.451Z,8.90
2019-04-14T22:33:51.671Z,9.60
2019-04-14T22:36:19.174Z,9.43
2019-04-14T22:38:46.520Z,9.35
2019-04-14T22:41:13.757Z,8.35
2019-04-14T22:43:40.991Z,10.00
2019-04-14T22:46:08.233Z,7.70
2019-04-14T22:48:35.453Z,7.83
2019-04-14T22:51:02.679Z,7.83
2019-04-14T22:53:29.907Z,7.53
2019-04-14T22:55:57.135Z,8.90
2019-04-14T22:58:24.374Z,7.47
2019-04-14T23:00:56.178Z,7.67
2019-04-14T23:03:40.319Z,10.13
2019-04-14T23:06:18.023Z,8.83
2019-04-14T23:08:52.814Z,9.20
2019-04-14T23:11:30.555Z,8.83
2019-04-14T23:14:16.154Z,8.40
2019-04-14T23:17:00.047Z,7.20
2019-04-14T23:19:28.917Z,11.75
2019-04-14T23:21:57.791Z,14.43
2019-04-14T23:24:29.544Z,11.93
2019-04-14T23:26:56.827Z,11.22
2019-04-14T23:29:24.051Z,8.78
2019-04-14T23:31:51.365Z,9.40
2019-04-14T23:34:18.878Z,9.63
2019-04-14T23:36:46.380Z,10.40
2019-04-14T23:39:13.648Z,8.38
2019-04-14T23:41:40.878Z,9.75
2019-04-14T23:44:08.255Z,8.50
2019-04-14T23:46:35.845Z,8.85
2019-04-14T23:49:03.169Z,10.32
2019-04-14T23:51:30.397Z,9.58
2019-04-14T23:53:57.622Z,8.75
2019-04-14T23:56:24.852Z,8.35
2019-04-14T23:58:52.138Z,9.40
